createdAt,value
2022-11-18T00:01:14.760Z,98.9
2022-11-18T00:02:31.050Z,98.8
2022-11-18T00:03:46.380Z,98.8
2022-11-18T00:05:02.659Z,98.9
2022-11-18T00:06:18.952Z,98.8
2022-11-18T00:07:35.237Z,98.8
2022-11-18T00:08:51.540Z,98.8
2022-11-18T00:10:07.832Z,99
2022-11-18T00:11:23.160Z,99
2022-11-18T00:12:39.441Z,99.2
2022-11-18T00:13:55.741Z,99
2022-11-18T00:15:12.022Z,99.3
2022-11-18T00:16:28.327Z,99.2
2022-11-18T00:17:44.618Z,99
2022-11-18T00:19:00.924Z,99
2022-11-18T00:20:17.219Z,99
2022-11-18T00:21:33.500Z,99
2022-11-18T00:22:49.795Z,99.2
2022-11-18T00:24:06.084Z,99.3
2022-11-18T00:25:22.380Z,99.2
2022-11-18T00:26:38.679Z,99.3
2022-11-18T00:27:53.974Z,99.5
2022-11-18T00:29:10.277Z,99.4
2022-11-18T00:30:26.573Z,99
2022-11-18T00:31:42.871Z,98.8
2022-11-18T00:32:59.152Z,98.7
2022-11-18T00:34:15.455Z,98.7
2022-11-18T00:35:31.757Z,98.7
2022-11-18T00:36:48.047Z,98.7
2022-11-18T00:38:04.343Z,98.6
2022-11-18T00:39:20.641Z,98.6
2022-11-18T00:40:36.914Z,98.7
2022-11-18T00:41:53.219Z,98.8
2022-11-18T00:43:09.508Z,98.8
2022-11-18T00:44:24.834Z,99
2022-11-18T00:45:41.118Z,98.8
2022-11-18T00:46:57.420Z,98.5
2022-11-18T00:48:13.699Z,98.5
2022-11-18T00:49:29.998Z,98.5
2022-11-18T00:50:46.303Z,98.6
2022-11-18T00:52:02.597Z,98.6
2022-11-18T00:53:18.877Z,98.8
2022-11-18T00:54:35.172Z,99
2022-11-18T00:55:51.462Z,99
2022-11-18T00:57:07.769Z,99
2022-11-18T00:58:24.055Z,99.2
2022-11-18T00:59:40.345Z,99.3
2022-11-18T01:00:55.653Z,99.6
2022-11-18T01:02:11.952Z,99.5
2022-11-18T01:03:28.244Z,99.2
2022-11-18T01:04:44.545Z,99.2
2022-11-18T01:06:00.834Z,99.2
2022-11-18T01:07:17.137Z,99.3
2022-11-18T01:08:33.409Z,99.2
2022-11-18T01:09:49.707Z,99
2022-11-18T01:11:06.005Z,99
2022-11-18T01:12:22.294Z,99
2022-11-18T01:13:38.587Z,98.8
2022-11-18T01:14:54.895Z,99
2022-11-18T01:16:11.194Z,99
2022-11-18T01:17:26.503Z,98.8
2022-11-18T01:18:42.783Z,98.8
2022-11-18T01:19:59.090Z,98.7
2022-11-18T01:21:15.000Z,98.7
2022-11-18T01:22:31.673Z,98.8
2022-11-18T01:23:47.948Z,99
2022-11-18T01:25:04.247Z,98.8
2022-11-18T01:26:20.552Z,98.8
2022-11-18T01:27:36.838Z,99
2022-11-18T01:28:53.139Z,99
2022-11-18T01:30:09.440Z,99
2022-11-18T01:31:25.717Z,99
2022-11-18T01:32:42.007Z,99.3
2022-11-18T01:33:57.314Z,98.9
2022-11-18T01:35:13.625Z,99
2022-11-18T01:36:29.901Z,98.9
2022-11-18T01:37:46.215Z,98.8
2022-11-18T01:39:02.495Z,98.9
2022-11-18T01:40:18.782Z,98.9
2022-11-18T01:41:35.087Z,99
2022-11-18T01:42:51.387Z,98.9
2022-11-18T01:44:07.667Z,98.8
2022-11-18T01:45:23.965Z,98.8
2022-11-18T01:46:40.265Z,98.9
2022-11-18T01:47:56.550Z,99
2022-11-18T01:49:12.849Z,99.1
2022-11-18T01:50:28.168Z,98.7
2022-11-18T01:51:44.455Z,98.5
2022-11-18T01:53:00.752Z,98.4
2022-11-18T01:54:17.055Z,98.5
2022-11-18T01:55:33.336Z,98.3
2022-11-18T01:56:49.625Z,98.5
2022-11-18T01:58:05.924Z,98.6
2022-11-18T01:59:22.213Z,98.7
2022-11-18T02:00:38.522Z,98.7
2022-11-18T02:01:54.804Z,98.7
2022-11-18T02:03:11.100Z,98.9
2022-11-18T02:04:27.397Z,98.8
2022-11-18T02:05:43.692Z,98.6
2022-11-18T02:06:59.008Z,98.5
2022-11-18T02:08:15.290Z,98.4
2022-11-18T02:09:31.577Z,98.5
2022-11-18T02:10:47.878Z,98.5
2022-11-18T02:12:04.167Z,98.6
2022-11-18T02:13:20.472Z,98.7
2022-11-18T02:14:36.751Z,98.7
2022-11-18T02:15:53.059Z,98.7
2022-11-18T02:17:09.332Z,98.7
2022-11-18T02:18:25.633Z,99
2022-11-18T02:19:41.930Z,99.1
2022-11-18T02:20:58.232Z,98.7
2022-11-18T02:22:14.514Z,98.6
2022-11-18T02:23:29.826Z,98.5
2022-11-18T02:24:46.128Z,98.4
2022-11-18T02:26:02.414Z,98.5
2022-11-18T02:27:18.711Z,98.5
2022-11-18T02:28:35.001Z,98.6
2022-11-18T02:29:51.297Z,98.8
2022-11-18T02:31:07.586Z,98.7
2022-11-18T02:32:23.888Z,98.8
2022-11-18T02:33:40.179Z,98.9
2022-11-18T02:34:56.473Z,99.1
2022-11-18T02:36:12.776Z,98.8
2022-11-18T02:37:29.053Z,98.7
2022-11-18T02:38:45.368Z,98.7
2022-11-18T02:40:00.666Z,98.6
2022-11-18T02:41:16.000Z,98.6
2022-11-18T02:42:33.250Z,98.4
2022-11-18T02:43:49.560Z,98.4
2022-11-18T02:45:05.843Z,98.4
2022-11-18T02:46:22.145Z,98.4
2022-11-18T02:47:38.425Z,98.6
2022-11-18T02:48:54.718Z,98.6
2022-11-18T02:50:11.018Z,98.5
2022-11-18T02:51:27.356Z,98.6
2022-11-18T02:52:43.645Z,99
2022-11-18T02:53:59.946Z,98.6
2022-11-18T02:55:16.241Z,98.4
2022-11-18T02:56:32.637Z,98.4
2022-11-18T02:57:48.944Z,98.2
2022-11-18T02:59:05.232Z,98.1
2022-11-18T03:00:21.520Z,98.4
2022-11-18T03:01:37.828Z,98.5
2022-11-18T03:02:54.118Z,98.4
2022-11-18T03:04:10.407Z,98.6
2022-11-18T03:05:26.705Z,98.3
2022-11-18T03:06:43.011Z,98.1
2022-11-18T03:07:59.295Z,98.2
2022-11-18T03:09:15.586Z,98.2
2022-11-18T03:10:31.882Z,98.3
2022-11-18T03:11:48.178Z,98.3
2022-11-18T03:13:03.484Z,98.5
2022-11-18T03:14:19.795Z,98.4
2022-11-18T03:15:36.062Z,98.6
2022-11-18T03:16:52.368Z,98.5
2022-11-18T03:18:08.655Z,98.6
2022-11-18T03:19:24.959Z,98.3
2022-11-18T03:20:41.256Z,98.1
2022-11-18T03:21:57.554Z,98
2022-11-18T03:23:13.835Z,98
2022-11-18T03:24:30.126Z,98
2022-11-18T03:25:46.426Z,97.9
2022-11-18T03:27:02.711Z,97.7
2022-11-18T03:28:19.011Z,97.8
2022-11-18T03:29:34.329Z,97.9
2022-11-18T03:30:50.616Z,97.9
2022-11-18T03:32:06.907Z,97.7
2022-11-18T03:33:23.190Z,97.8
2022-11-18T03:34:39.488Z,97.9
2022-11-18T03:35:55.801Z,98.3
2022-11-18T03:37:12.085Z,97.6
2022-11-18T03:38:28.380Z,97.3
2022-11-18T03:39:44.682Z,97
2022-11-18T03:41:00.966Z,97.2
2022-11-18T03:42:17.257Z,97.3
2022-11-18T03:43:33.547Z,97.8
2022-11-18T03:44:49.850Z,98
2022-11-18T03:46:05.158Z,98
2022-11-18T03:47:21.457Z,97.9
2022-11-18T03:48:37.747Z,97.8
2022-11-18T03:49:54.045Z,97.7
2022-11-18T03:51:10.329Z,97.8
2022-11-18T03:52:26.637Z,98
2022-11-18T03:53:42.926Z,98.2
2022-11-18T03:54:59.218Z,97.3
2022-11-18T03:56:15.517Z,97.4
2022-11-18T03:57:31.817Z,97.7
2022-11-18T03:58:48.091Z,97.6
2022-11-18T04:00:04.403Z,97.6
2022-11-18T04:01:20.684Z,97.5
2022-11-18T04:02:35.988Z,97.4
2022-11-18T04:03:52.280Z,97.5
2022-11-18T04:05:08.582Z,97.6
2022-11-18T04:06:24.871Z,97.8
2022-11-18T04:07:41.183Z,97.7
2022-11-18T04:08:57.461Z,97.8
2022-11-18T04:10:13.768Z,97.9
2022-11-18T04:11:30.037Z,97.8
2022-11-18T04:12:46.352Z,98
2022-11-18T04:14:02.634Z,98.1
2022-11-18T04:15:18.935Z,98.2
2022-11-18T04:16:35.215Z,98
2022-11-18T04:17:51.530Z,97.8
2022-11-18T04:19:06.824Z,97.9
2022-11-18T04:20:23.123Z,97.9
2022-11-18T04:21:39.429Z,98.2
2022-11-18T04:22:55.708Z,97.8
2022-11-18T04:24:12.003Z,97.6
2022-11-18T04:25:28.314Z,97.5
2022-11-18T04:26:43.616Z,97.4
2022-11-18T04:27:59.915Z,97.7
2022-11-18T04:29:16.202Z,97.7
2022-11-18T04:30:32.504Z,97.8
2022-11-18T04:31:48.795Z,97.9
2022-11-18T04:33:05.087Z,97.8
2022-11-18T04:34:21.389Z,97.7
2022-11-18T04:35:37.665Z,97.6
2022-11-18T04:36:53.977Z,97.5
2022-11-18T04:38:10.267Z,97.5
2022-11-18T04:39:26.567Z,97.8
2022-11-18T04:40:42.860Z,97.8
2022-11-18T04:41:59.142Z,97.4
2022-11-18T04:43:14.456Z,97.6
2022-11-18T04:44:30.750Z,97.5
2022-11-18T04:45:47.040Z,97.8
2022-11-18T04:47:03.329Z,97.9
2022-11-18T04:48:19.629Z,97.9
2022-11-18T04:49:35.925Z,97.8
2022-11-18T04:50:52.211Z,98
2022-11-18T04:52:08.509Z,97.8
2022-11-18T04:53:24.813Z,97.7
2022-11-18T04:54:41.099Z,97.7
2022-11-18T04:55:57.407Z,98.1
2022-11-18T04:57:13.681Z,98.1
2022-11-18T04:58:29.983Z,98.1
2022-11-18T04:59:46.271Z,98.2
2022-11-18T05:01:01.581Z,98
2022-11-18T05:02:17.886Z,98
2022-11-18T05:03:34.184Z,98.2
2022-11-18T05:04:50.467Z,98.3
2022-11-18T05:06:06.757Z,98.4
2022-11-18T05:07:23.054Z,98.2
2022-11-18T05:08:39.357Z,98.4
2022-11-18T05:09:55.639Z,98.2
2022-11-18T05:11:11.942Z,98
2022-11-18T05:12:28.237Z,98
2022-11-18T05:13:44.533Z,98
2022-11-18T05:15:00.836Z,98
2022-11-18T05:16:17.123Z,98.2
2022-11-18T05:17:32.438Z,98.4
2022-11-18T05:18:48.717Z,98.5
2022-11-18T05:20:05.008Z,98.5
2022-11-18T05:21:21.302Z,98.5
2022-11-18T05:22:37.613Z,98.5
2022-11-18T05:23:53.908Z,98.6
2022-11-18T05:25:10.183Z,98.6
2022-11-18T05:26:26.480Z,98.9
2022-11-18T05:27:42.784Z,98.5
2022-11-18T05:28:59.065Z,98.3
2022-11-18T05:30:15.364Z,98.5
2022-11-18T05:31:31.668Z,98.5
2022-11-18T05:32:47.960Z,98.6
2022-11-18T05:34:04.386Z,98.7
2022-11-18T05:35:20.662Z,98.9
2022-11-18T05:36:36.964Z,98.9
2022-11-18T05:37:53.249Z,98.7
2022-11-18T05:39:09.559Z,98.7
2022-11-18T05:40:25.849Z,98.8
2022-11-18T05:41:42.131Z,99
2022-11-18T05:42:58.435Z,99.3
2022-11-18T05:44:14.723Z,99.2
2022-11-18T05:45:31.015Z,99
2022-11-18T05:46:47.309Z,99
2022-11-18T05:48:03.598Z,98.8
2022-11-18T05:49:19.903Z,98.3
2022-11-18T05:50:35.219Z,98.4
2022-11-18T05:51:51.498Z,98.4
2022-11-18T05:53:07.802Z,98.3
2022-11-18T05:54:24.094Z,98.5
2022-11-18T05:55:40.398Z,98.7
2022-11-18T05:56:56.682Z,98.7
2022-11-18T05:58:12.979Z,98.8
2022-11-18T05:59:29.269Z,98.9
2022-11-18T06:00:45.561Z,98.7
2022-11-18T06:02:01.854Z,98.4
2022-11-18T06:03:18.150Z,98
2022-11-18T06:04:34.462Z,97.7
2022-11-18T06:05:50.682Z,97.7
2022-11-18T06:07:05.963Z,97.8
2022-11-18T06:08:22.192Z,97.9
2022-11-18T06:09:38.493Z,97.8
2022-11-18T06:10:54.733Z,97.8
2022-11-18T06:12:10.982Z,97.6
2022-11-18T06:13:27.235Z,97.8
2022-11-18T06:14:43.455Z,98
2022-11-18T06:15:59.691Z,98.1
2022-11-18T06:17:15.958Z,98.3
2022-11-18T06:18:32.190Z,98.4
2022-11-18T06:19:48.433Z,98.3
2022-11-18T06:21:04.682Z,98.3
2022-11-18T06:22:20.906Z,98.4
2022-11-18T06:23:36.000Z,98.6
2022-11-18T06:24:52.409Z,98.4
2022-11-18T06:26:08.653Z,98.2
2022-11-18T06:27:24.892Z,98.1
2022-11-18T06:28:41.128Z,98.1
2022-11-18T06:29:57.361Z,98
2022-11-18T06:31:13.605Z,97.6
2022-11-18T06:32:29.861Z,97.8
2022-11-18T06:33:46.102Z,98.2
2022-11-18T06:35:02.337Z,97.9
2022-11-18T06:36:18.580Z,97.8
2022-11-18T06:37:34.806Z,97.9
2022-11-18T06:38:51.057Z,97.8
2022-11-18T06:40:06.308Z,97.8
2022-11-18T06:41:22.556Z,98.1
2022-11-18T06:42:38.786Z,97.9
2022-11-18T06:43:55.023Z,97.9
2022-11-18T06:45:11.270Z,97.7
2022-11-18T06:46:27.519Z,97.3
2022-11-18T06:47:43.751Z,97.3
2022-11-18T06:48:59.997Z,97.5
2022-11-18T06:50:16.226Z,97.8
2022-11-18T06:51:32.468Z,97.5
2022-11-18T06:52:48.716Z,97.5
2022-11-18T06:54:04.945Z,97.5
2022-11-18T06:55:21.190Z,97.6
2022-11-18T06:56:36.441Z,97.7
2022-11-18T06:57:52.693Z,97.7
2022-11-18T06:59:08.924Z,97.5
2022-11-18T07:00:25.174Z,97.8
2022-11-18T07:01:41.408Z,98
2022-11-18T07:02:57.662Z,97.8
2022-11-18T07:04:13.878Z,97.5
2022-11-18T07:05:30.127Z,97.7
2022-11-18T07:06:46.371Z,97.8
2022-11-18T07:08:02.607Z,97.5
2022-11-18T07:09:18.838Z,97.3
2022-11-18T07:10:35.087Z,97.3
2022-11-18T07:11:51.338Z,97.3
2022-11-18T07:13:06.596Z,97.6
2022-11-18T07:14:22.833Z,97.4
2022-11-18T07:15:39.077Z,97.4
2022-11-18T07:16:55.300Z,97.4
2022-11-18T07:18:11.541Z,97.1
2022-11-18T07:19:27.783Z,97
2022-11-18T07:20:44.040Z,97.3
2022-11-18T07:22:00.275Z,97.5
2022-11-18T07:23:16.507Z,97.1
2022-11-18T07:24:32.742Z,97.2
2022-11-18T07:25:48.986Z,97.2
2022-11-18T07:27:05.226Z,97
2022-11-18T07:28:21.470Z,96.8
2022-11-18T07:29:36.731Z,97.2
2022-11-18T07:30:52.958Z,97.2
2022-11-18T07:32:09.195Z,97.5
2022-11-18T07:33:25.458Z,97.5
2022-11-18T07:34:41.677Z,97
2022-11-18T07:35:57.933Z,97.5
2022-11-18T07:37:14.165Z,97.2
2022-11-18T07:38:30.402Z,96.8
2022-11-18T07:39:46.638Z,97.2
2022-11-18T07:41:02.896Z,97.2
2022-11-18T07:42:19.120Z,97.3
2022-11-18T07:43:35.361Z,97.4
2022-11-18T07:44:51.594Z,97.2
2022-11-18T07:46:06.850Z,97.2
2022-11-18T07:47:23.114Z,97.1
2022-11-18T07:48:39.349Z,96.8
2022-11-18T07:49:55.585Z,96.8
2022-11-18T07:51:11.822Z,96.7
2022-11-18T07:52:28.052Z,96.8
2022-11-18T07:53:44.292Z,96.7
2022-11-18T07:55:00.541Z,96.7
2022-11-18T07:56:16.795Z,96.5
2022-11-18T07:57:33.019Z,96.4
2022-11-18T07:58:49.266Z,96.5
2022-11-18T08:00:05.495Z,96.5
2022-11-18T08:01:21.739Z,96.9
2022-11-18T08:02:37.005Z,97
2022-11-18T08:03:53.252Z,96.9
2022-11-18T08:05:09.482Z,96.9
2022-11-18T08:06:25.714Z,97.1
2022-11-18T08:07:41.955Z,97.6
2022-11-18T08:08:58.193Z,97.8
2022-11-18T08:10:14.429Z,97.4
2022-11-18T08:11:30.677Z,97
2022-11-18T08:12:46.928Z,96.8
2022-11-18T08:14:03.158Z,96.8
2022-11-18T08:15:19.409Z,97.1
2022-11-18T08:16:35.635Z,97.5
2022-11-18T08:17:51.877Z,97.4
2022-11-18T08:19:07.140Z,97.2
2022-11-18T08:20:23.373Z,97.4
2022-11-18T08:21:39.620Z,97.5
2022-11-18T08:22:55.852Z,97.9
2022-11-18T08:24:12.103Z,97.1
2022-11-18T08:25:28.344Z,96.7
2022-11-18T08:26:44.577Z,96.5
2022-11-18T08:28:00.818Z,97.1
2022-11-18T08:29:17.074Z,97.4
2022-11-18T08:30:33.295Z,97.3
2022-11-18T08:31:49.534Z,97
2022-11-18T08:33:05.773Z,97.2
2022-11-18T08:34:22.018Z,96.7
2022-11-18T08:35:37.286Z,97.2
2022-11-18T08:38:09.760Z,97.8
2022-11-18T08:39:25.995Z,97.4
2022-11-18T08:40:42.251Z,97.5
2022-11-18T08:41:57.500Z,97.4
2022-11-18T08:43:13.743Z,97.1
2022-11-18T08:44:29.976Z,97.2
2022-11-18T08:45:46.220Z,97
2022-11-18T08:47:02.451Z,97.3
2022-11-18T08:48:18.709Z,97
2022-11-18T08:49:34.938Z,96.9
2022-11-18T08:50:51.182Z,97.2
2022-11-18T08:52:07.430Z,97.2
2022-11-18T08:53:23.673Z,97.5
2022-11-18T08:54:39.913Z,97.1
2022-11-18T08:55:56.141Z,96.7
2022-11-18T08:57:12.383Z,96.6
2022-11-18T08:58:27.630Z,97.1
2022-11-18T08:59:43.888Z,97.3
2022-11-18T09:01:00.117Z,97.9
2022-11-18T09:02:16.356Z,97.9
2022-11-18T09:03:32.587Z,97.8
2022-11-18T09:04:48.847Z,98
2022-11-18T09:06:05.076Z,98.5
2022-11-18T09:07:21.317Z,99.1
2022-11-18T09:08:37.556Z,98.4
2022-11-18T09:09:53.801Z,98.3
2022-11-18T09:11:10.035Z,98
2022-11-18T09:12:26.282Z,98.3
2022-11-18T09:13:42.522Z,98.5
2022-11-18T09:14:57.783Z,98.3
2022-11-18T09:16:14.020Z,98.1
2022-11-18T09:17:30.251Z,98
2022-11-18T09:18:46.506Z,98
2022-11-18T09:20:02.735Z,97.9
2022-11-18T09:21:18.965Z,97.5
2022-11-18T09:22:35.225Z,97.5
2022-11-18T09:23:51.447Z,97.2
2022-11-18T09:25:07.693Z,96.2
2022-11-18T09:26:23.944Z,96
2022-11-18T09:27:40.172Z,95.8
2022-11-18T09:28:56.409Z,95.6
2022-11-18T09:30:12.654Z,95.6
2022-11-18T09:31:27.917Z,95.8
2022-11-18T09:32:44.151Z,95.4
2022-11-18T09:34:00.380Z,95.3
2022-11-18T09:35:16.626Z,95.6
2022-11-18T09:36:32.874Z,95.2
2022-11-18T09:37:49.108Z,95.7
2022-11-18T09:39:05.357Z,96.1
2022-11-18T09:40:21.585Z,96.3
2022-11-18T09:41:37.823Z,96.1
2022-11-18T09:42:54.072Z,95.7
2022-11-18T09:44:10.318Z,96.2
2022-11-18T09:45:26.562Z,96.1
2022-11-18T09:46:42.778Z,96.3
2022-11-18T09:47:59.027Z,96.4
2022-11-18T09:49:14.293Z,96.4
2022-11-18T09:51:46.771Z,96.2
2022-11-18T09:53:03.017Z,96.3
2022-11-18T09:54:19.257Z,96.7
2022-11-18T09:55:35.478Z,96.3
2022-11-18T09:56:51.723Z,96.5
2022-11-18T09:58:07.970Z,96.3
2022-11-18T09:59:24.203Z,96.4
2022-11-18T10:00:40.452Z,96.6
2022-11-18T10:01:56.678Z,96.8
2022-11-18T10:03:12.924Z,96.9
2022-11-18T10:04:29.164Z,96.8
2022-11-18T10:05:45.402Z,96.9
2022-11-18T10:07:00.659Z,96.9
2022-11-18T10:08:16.918Z,96.9
2022-11-18T10:09:33.138Z,97.1
2022-11-18T10:10:49.378Z,96.8
2022-11-18T10:12:05.626Z,96.7
2022-11-18T10:13:21.863Z,96.3
2022-11-18T10:14:38.101Z,95.8
2022-11-18T10:15:54.342Z,95.8
2022-11-18T10:17:10.581Z,96.3
2022-11-18T10:18:26.832Z,96.4
2022-11-18T10:19:43.073Z,96.3
2022-11-18T10:20:59.301Z,95.9
2022-11-18T10:22:15.555Z,95.6
2022-11-18T10:23:31.794Z,96.2
2022-11-18T10:24:47.045Z,96.1
2022-11-18T10:26:03.274Z,96.1
2022-11-18T10:27:19.524Z,96.1
2022-11-18T10:28:35.757Z,95.3
2022-11-18T10:29:51.995Z,95.6
2022-11-18T10:31:08.242Z,95.4
2022-11-18T10:32:24.485Z,95.1
2022-11-18T10:33:40.729Z,95.2
2022-11-18T10:34:56.957Z,95.3
2022-11-18T10:36:13.201Z,94.8
2022-11-18T10:37:29.431Z,94.5
2022-11-18T10:38:45.680Z,94.7
2022-11-18T10:40:01.919Z,95.1
2022-11-18T10:41:17.178Z,95.4
2022-11-18T10:42:33.412Z,95.1
2022-11-18T10:43:49.659Z,94.4
2022-11-18T10:45:05.897Z,94.1
2022-11-18T10:46:22.138Z,93.4
2022-11-18T10:47:38.375Z,93.3
2022-11-18T10:48:54.609Z,93.1
2022-11-18T10:50:10.849Z,93.1
2022-11-18T10:51:27.110Z,93.3
2022-11-18T10:52:43.333Z,93.3
2022-11-18T10:53:59.575Z,93.5
2022-11-18T10:55:15.817Z,93.8
2022-11-18T10:56:32.058Z,94.2
2022-11-18T10:57:47.328Z,94.1
2022-11-18T10:59:03.548Z,94.7
2022-11-18T11:00:19.790Z,94.6
2022-11-18T11:01:36.040Z,94.3
2022-11-18T11:02:52.270Z,94.3
2022-11-18T11:04:08.527Z,94.1
2022-11-18T11:05:24.749Z,95
2022-11-18T11:06:40.984Z,95.1
2022-11-18T11:07:57.237Z,94.3
2022-11-18T11:09:13.471Z,94.2
2022-11-18T11:10:29.721Z,93.9
2022-11-18T11:11:45.956Z,93.8
2022-11-18T11:13:02.203Z,94.3
2022-11-18T11:14:17.450Z,94.7
2022-11-18T11:15:33.692Z,94.2
2022-11-18T11:16:49.934Z,94.6
2022-11-18T11:18:06.167Z,94.4
2022-11-18T11:19:22.422Z,93.9
2022-11-18T11:20:38.650Z,93.7
2022-11-18T11:21:54.887Z,93.3
2022-11-18T11:23:11.131Z,93
2022-11-18T11:24:27.369Z,93.5
2022-11-18T11:25:43.618Z,94.1
2022-11-18T11:26:59.855Z,94.4
2022-11-18T11:28:16.095Z,95
2022-11-18T11:29:32.327Z,95.8
2022-11-18T11:30:47.579Z,95.7
2022-11-18T11:32:03.827Z,95.8
2022-11-18T11:33:20.072Z,96.2
2022-11-18T11:34:36.298Z,95.7
2022-11-18T11:35:52.555Z,95
2022-11-18T11:37:08.782Z,94.7
2022-11-18T11:38:25.029Z,94.3
2022-11-18T11:39:41.280Z,94
2022-11-18T11:40:57.510Z,94.6
2022-11-18T11:42:13.735Z,95.3
2022-11-18T11:43:29.980Z,95
2022-11-18T11:44:46.222Z,94.9
2022-11-18T11:46:02.469Z,94.7
2022-11-18T11:47:17.722Z,95.1
2022-11-18T11:48:33.966Z,94.7
2022-11-18T11:49:50.205Z,95.7
2022-11-18T11:51:06.442Z,95.2
2022-11-18T11:52:22.683Z,95.7
2022-11-18T11:53:38.926Z,95.7
2022-11-18T11:54:55.178Z,96.2
2022-11-18T11:56:11.406Z,95.5
2022-11-18T11:57:27.642Z,95.1
2022-11-18T11:58:43.894Z,95.4
2022-11-18T12:00:00.131Z,94.8
2022-11-18T12:01:16.364Z,93.9
2022-11-18T12:02:32.610Z,94.3
2022-11-18T12:03:48.848Z,94.2
2022-11-18T12:05:05.206Z,94.1
2022-11-18T12:06:21.452Z,94.4
2022-11-18T12:07:37.692Z,94.4
2022-11-18T12:08:53.928Z,94.7
2022-11-18T12:10:10.176Z,93.3
2022-11-18T12:11:26.400Z,93.3
2022-11-18T12:12:42.660Z,93.1
2022-11-18T12:13:58.880Z,92.3
2022-11-18T12:15:15.137Z,92.1
2022-11-18T12:16:31.383Z,92.1
2022-11-18T12:17:47.610Z,92.5
2022-11-18T12:19:03.851Z,93.5
2022-11-18T12:20:20.087Z,93.2
2022-11-18T12:21:35.363Z,93.1
2022-11-18T12:22:51.595Z,93.3
2022-11-18T12:24:07.817Z,91.9
2022-11-18T12:25:24.085Z,91.9
2022-11-18T12:26:40.307Z,92.1
2022-11-18T12:27:56.542Z,91.7
2022-11-18T12:29:12.785Z,92.7
2022-11-18T12:30:29.035Z,93.4
2022-11-18T12:31:45.260Z,93.3
2022-11-18T12:33:01.504Z,93.1
2022-11-18T12:34:17.737Z,92.5
2022-11-18T12:35:33.989Z,92.3
2022-11-18T12:36:50.224Z,92
2022-11-18T12:38:05.483Z,92.1
2022-11-18T12:39:21.728Z,93.3
2022-11-18T12:40:37.969Z,93.4
2022-11-18T12:41:54.205Z,93.8
2022-11-18T12:43:10.445Z,93.7
2022-11-18T12:44:26.678Z,93.7
2022-11-18T12:45:42.923Z,92.1
2022-11-18T12:46:59.158Z,92
2022-11-18T12:48:15.417Z,92.7
2022-11-18T12:49:31.638Z,93.1
2022-11-18T12:50:47.879Z,93.7
2022-11-18T12:52:04.129Z,92.8
2022-11-18T12:53:20.375Z,92.5
2022-11-18T12:54:35.638Z,93
2022-11-18T12:55:51.870Z,91.7
2022-11-18T12:57:08.101Z,92.2
2022-11-18T12:58:23.360Z,92.7
2022-11-18T12:59:39.608Z,93.1
2022-11-18T13:00:55.862Z,94.2
2022-11-18T13:02:12.000Z,93.8
2022-11-18T13:03:28.325Z,92.6
2022-11-18T13:04:44.577Z,93.8
2022-11-18T13:06:00.797Z,93.6
2022-11-18T13:07:17.059Z,92.6
2022-11-18T13:08:33.283Z,93.2
2022-11-18T13:09:49.516Z,93.5
2022-11-18T13:11:05.767Z,93.6
2022-11-18T13:12:21.999Z,93.5
2022-11-18T13:13:38.243Z,93.8
2022-11-18T13:14:54.478Z,92.8
2022-11-18T13:16:09.745Z,92.4
2022-11-18T13:17:25.989Z,93
2022-11-18T13:18:42.233Z,92.4
2022-11-18T13:19:58.482Z,92
2022-11-18T13:21:14.707Z,92.4
2022-11-18T13:22:30.944Z,92.9
2022-11-18T13:23:47.190Z,93.1
2022-11-18T13:25:03.427Z,91.8
2022-11-18T13:26:19.680Z,92.2
2022-11-18T13:27:35.899Z,91.7
2022-11-18T13:28:52.144Z,92.3
2022-11-18T13:30:08.394Z,92.6
2022-11-18T13:31:24.642Z,92.5
2022-11-18T13:32:40.870Z,92.8
2022-11-18T13:33:56.136Z,92.7
2022-11-18T13:35:12.375Z,92.7
2022-11-18T13:36:28.602Z,93.1
2022-11-18T13:37:44.836Z,92.4
2022-11-18T13:39:01.084Z,93.2
2022-11-18T13:40:17.326Z,93.9
2022-11-18T13:41:33.573Z,94.1
2022-11-18T13:42:49.000Z,93.2
2022-11-18T13:44:06.046Z,93.6
2022-11-18T13:45:22.300Z,94
2022-11-18T13:46:38.531Z,93.3
2022-11-18T13:47:54.762Z,93.3
2022-11-18T13:49:11.016Z,93
2022-11-18T13:50:27.250Z,92.6
2022-11-18T13:51:42.509Z,92.6
2022-11-18T13:52:58.737Z,92.5
2022-11-18T13:54:15.001Z,92.6
2022-11-18T13:55:31.225Z,94
2022-11-18T13:56:47.472Z,94.7
2022-11-18T13:58:03.711Z,94.1
2022-11-18T13:59:19.958Z,93.6
2022-11-18T14:00:36.196Z,93.4
2022-11-18T14:01:52.421Z,94.1
2022-11-18T14:03:08.680Z,94.4
2022-11-18T14:04:24.920Z,93.9
2022-11-18T14:05:41.144Z,94.2
2022-11-18T14:06:57.396Z,93.7
2022-11-18T14:08:13.629Z,92.9
2022-11-18T14:09:28.902Z,92.8
2022-11-18T14:10:45.140Z,93
2022-11-18T14:12:01.374Z,92.5
2022-11-18T14:13:17.607Z,92.9
2022-11-18T14:14:33.861Z,93.4
2022-11-18T14:15:50.097Z,92.8
2022-11-18T14:17:06.331Z,92
2022-11-18T14:18:22.572Z,92.2
2022-11-18T14:19:38.816Z,92.6
2022-11-18T14:20:55.048Z,92.6
2022-11-18T14:22:11.291Z,92.9
2022-11-18T14:23:27.542Z,93.4
2022-11-18T14:24:43.774Z,93
2022-11-18T14:26:00.007Z,93
2022-11-18T14:27:15.276Z,93.1
2022-11-18T14:28:31.519Z,92.9
2022-11-18T14:29:47.745Z,93.1
2022-11-18T14:31:04.004Z,93.5
2022-11-18T14:32:20.240Z,92.9
2022-11-18T14:33:36.480Z,92.9
2022-11-18T14:34:52.727Z,93.1
2022-11-18T14:36:08.967Z,92.6
2022-11-18T14:37:25.192Z,92.2
2022-11-18T14:38:41.436Z,91.5
2022-11-18T14:39:57.674Z,92.1
2022-11-18T14:41:13.915Z,91.5
2022-11-18T14:42:30.161Z,91.7
2022-11-18T14:43:46.395Z,91.3
2022-11-18T14:45:01.649Z,91.5
2022-11-18T14:46:17.911Z,90.6
2022-11-18T14:47:34.146Z,89.6
2022-11-18T14:48:50.391Z,89.6
2022-11-18T14:50:06.617Z,89.8
2022-11-18T14:51:22.861Z,90.3
2022-11-18T14:52:39.098Z,90.5
2022-11-18T14:53:55.337Z,90.7
2022-11-18T14:55:11.583Z,90.8
2022-11-18T14:56:27.809Z,89.8
2022-11-18T14:57:44.074Z,88.7
2022-11-18T14:59:00.295Z,88.7
2022-11-18T15:00:16.544Z,88.8
2022-11-18T15:01:32.786Z,88.5
2022-11-18T15:02:49.141Z,88.6
2022-11-18T15:04:05.372Z,88.6
2022-11-18T15:05:21.626Z,87.9
2022-11-18T15:06:37.852Z,88.3
2022-11-18T15:07:54.103Z,88.9
2022-11-18T15:09:10.340Z,89.1
2022-11-18T15:10:26.587Z,89.1
2022-11-18T15:11:42.829Z,88.7
2022-11-18T15:12:59.065Z,88.4
2022-11-18T15:14:15.319Z,88.9
2022-11-18T15:15:31.540Z,89.6
2022-11-18T15:16:47.784Z,89.3
2022-11-18T15:18:04.023Z,89.1
2022-11-18T15:19:19.282Z,90.1
2022-11-18T15:20:35.529Z,89
2022-11-18T15:21:51.758Z,89.7
2022-11-18T15:23:07.993Z,89.7
2022-11-18T15:24:24.256Z,89.8
2022-11-18T15:25:40.496Z,89.7
2022-11-18T15:26:56.719Z,89.7
2022-11-18T15:28:12.967Z,89.8
2022-11-18T15:29:29.200Z,89.8
2022-11-18T15:30:45.434Z,89.3
2022-11-18T15:32:01.681Z,88.8
2022-11-18T15:33:17.936Z,88.8
2022-11-18T15:34:34.168Z,88.7
2022-11-18T15:35:49.435Z,88.9
2022-11-18T15:37:05.662Z,89.9
2022-11-18T15:38:21.896Z,89.5
2022-11-18T15:39:38.155Z,89.1
2022-11-18T15:40:54.383Z,89.5
2022-11-18T15:42:10.617Z,89.7
2022-11-18T15:43:26.863Z,90.3
2022-11-18T15:44:43.100Z,89.3
2022-11-18T15:45:59.338Z,89.3
2022-11-18T15:47:15.573Z,89.3
2022-11-18T15:48:31.883Z,89.9
2022-11-18T15:49:48.157Z,89.8
2022-11-18T15:51:04.470Z,90
2022-11-18T15:52:19.757Z,90.7
2022-11-18T15:53:36.038Z,90.6
2022-11-18T15:54:52.356Z,90.9
2022-11-18T15:56:08.635Z,90.9
2022-11-18T15:57:24.917Z,91.7
2022-11-18T15:58:41.215Z,91.8
2022-11-18T15:59:57.503Z,92.1
2022-11-18T16:01:13.815Z,92.1
2022-11-18T16:02:30.102Z,92.2
2022-11-18T16:03:46.405Z,92.5
2022-11-18T16:05:02.697Z,92.5
2022-11-18T16:06:18.979Z,92.4
2022-11-18T16:07:35.284Z,93
2022-11-18T16:08:50.586Z,93.3
2022-11-18T16:10:06.891Z,93.4
2022-11-18T16:11:23.181Z,93.6
2022-11-18T16:12:39.467Z,93.8
2022-11-18T16:13:55.770Z,95
2022-11-18T16:15:12.065Z,95
2022-11-18T16:16:28.345Z,94.2
2022-11-18T16:17:44.652Z,93.5
2022-11-18T16:19:00.951Z,92.6
2022-11-18T16:20:17.262Z,91.7
2022-11-18T16:21:33.536Z,91.3
2022-11-18T16:22:49.855Z,90.7
2022-11-18T16:24:06.116Z,90.2
2022-11-18T16:25:22.412Z,89.5
2022-11-18T16:26:37.730Z,89.9
2022-11-18T16:27:54.025Z,90.7
2022-11-18T16:29:10.308Z,89.5
2022-11-18T16:30:26.611Z,89.7
2022-11-18T16:31:42.930Z,89.8
2022-11-18T16:32:59.193Z,89.7
2022-11-18T16:34:15.501Z,89.5
2022-11-18T16:35:31.781Z,89.3
2022-11-18T16:36:48.072Z,89.9
2022-11-18T16:38:04.368Z,89.7
2022-11-18T16:39:20.672Z,89.3
2022-11-18T16:40:36.977Z,88.7
2022-11-18T16:41:53.283Z,89.6
2022-11-18T16:43:09.542Z,89.8
2022-11-18T16:44:24.867Z,88.8
2022-11-18T16:45:41.184Z,88.9
2022-11-18T16:46:57.474Z,89.5
2022-11-18T16:48:13.765Z,89.5
2022-11-18T16:49:30.046Z,89.9
2022-11-18T16:50:46.323Z,89.7
2022-11-18T16:52:02.624Z,89.6
2022-11-18T16:53:18.912Z,89.3
2022-11-18T16:54:35.232Z,88.9
2022-11-18T16:55:51.501Z,89
2022-11-18T16:57:07.804Z,88.4
2022-11-18T16:58:24.097Z,88.8
2022-11-18T16:59:40.395Z,89.5
2022-11-18T17:00:56.701Z,89.3
2022-11-18T17:02:12.020Z,88.5
2022-11-18T17:03:28.316Z,89
2022-11-18T17:04:44.586Z,89.1